Impacts TAF Board INFO
FOR SITUATIONAL AWARENESS. NOT TO BE USED FOR FLIGHT PLANNING PURPOSES.
IDs:

KMEM - Memphis Intl, TN, US

Issued at 0907 UTC 18 Oct 2017
Updated at 1109 UTC 18 Oct 2017
Potential Impact None Slight Moderate High
Time1054Z 18/12Z 18/13Z 18/14Z 18/15Z 18/16Z 18/17Z 18/18Z 18/19Z 18/20Z 18/21Z 18/22Z 18/23Z 19/00Z>>
Type OBS PRVL PRVL PRVL PRVL PRVL PRVL PRVL PRVL PRVL PRVL PRVL PRVL PRVL
VIS 10 >6 >6 >6 >6 >6 >6 >6 >6 >6 >6 >6 >6 >6
CIG -- -- -- -- -- -- -- -- -- -- -- -- -- --
Cover CLR SKC SKC SKC SKC SKC SKC SKC SKC SKC SKC SKC SKC SKC
FltCat VFR VFR VFR VFR VFR VFR VFR VFR VFR VFR VFR VFR VFR VFR
WX -- -- -- -- -- -- -- -- -- -- -- -- -- --
WDir VRB 160 160 170 170 170 170 170 170 170 170 170 170 160
WSpd 0 4 4 7 7 7 7 7 7 7 7 7 7 4
WGst -- -- -- -- -- -- -- -- -- -- -- -- -- --

Raw TAF
KMEM 180907Z 1809/1906 16004KT P6SM SKC
  FM181400 17007KT P6SM SKC
  FM190000 16004KT P6SM SKC


Raw METAR
KMEM 181054Z 00000KT 10SM CLR 10/07 A3024 RMK AO2 SLP239 T01000072
KMEM 180954Z 15004KT 10SM CLR 11/08 A3023 RMK AO2 SLP233 T01110078
KMEM 180854Z 14005KT 10SM CLR 13/08 A3023 RMK AO2 SLP233 T01280083 53002

METAR Board
Radar Display
Forecast Discussion

FOR SITUATIONAL AWARENESS. NOT TO BE USED FOR FLIGHT PLANNING PURPOSES.